PALU

Details ICAO PALU (LUR)
Name CAPE LISBURNE LRRS
Region USA (Alaska)
Timezone Unknown (UTC+0.0)
Plans Departing 0
Arriving 2
Stats Elevation 12 ft / 4 m (AMSL)
Location 68.875134° -166.110024°
Runways 1
Magnetic Variation 9.855° E
Sunrise Unknown / Unknown
Sunset Unknown / Unknown
Advertisement - Login to hide

Runways

ID Width Length Bearing (true) Bearing (mag) Surface Threshold Offset Overrun Length
08 135 ft / 41 m 4,990 ft / 1,521 m 100.59° 90.73° Gravel 0 ft / 0 m 0 ft / 0 m
26 135 ft / 41 m 4,990 ft / 1,521 m 280.62° 270.76° Gravel 0 ft / 0 m 0 ft / 0 m

Map

Weather


0- 5 10 15 20 25 30 35+ Temperature / ° C

Clouds and Precipitation
Forecast for 2017-12-13 18:00 UTC. Updated 17 minutes ago

Ground ~20,000 ft ~40,000 ft Winds

METAR

PALU 131325Z AUTO 11005KT 10SM OVC007 M05/M06 A2970 RMK AO2 SLP056

TAF

Not found

Frequencies

Unicom 126.20 MHz CTAF/UNICOM
Warning: Do not use this data for real-world aviation or navigation. No guarantee of current accuracy is given.